KLM42 EHAM-EGCC
Flight info
| Callsign | KLM42 |
|---|---|
| Flight time | N/A |
| Altitude | 32000 |
| Route | BERGI L60 OTBED |
| Aircraft | B739/M-SDE2E3FGHIRWXY/LB1 |
Departure
| Time | N/A |
|---|---|
| Airport | Amsterdam Airport Schiphol (EHAM) |
Arrival
| Time | 2026-05-05 19:52 |
|---|---|
| Airport | Manchester Airport (EGCC) |
| Time | Latitude | Longitude | Altitude | Speed | Heading |
|---|---|---|---|---|---|
| 2026-05-05 19:11 | 52.86364 | 3.11498 | 23978 ft | 412 kts | 283° |
| 2026-05-05 19:11 | 52.87065 | 3.06892 | 23982 ft | 412 kts | 283° |
| 2026-05-05 19:12 | 52.87764 | 3.02286 | 23990 ft | 412 kts | 283° |
| 2026-05-05 19:12 | 52.88461 | 2.97672 | 24204 ft | 415 kts | 282° |
| 2026-05-05 19:12 | 52.89152 | 2.93076 | 24589 ft | 416 kts | 282° |
| 2026-05-05 19:12 | 52.89852 | 2.88408 | 24916 ft | 418 kts | 282° |
| 2026-05-05 19:13 | 52.90552 | 2.83719 | 25226 ft | 420 kts | 282° |
| 2026-05-05 19:13 | 52.91016 | 2.80609 | 25426 ft | 421 kts | 282° |
| 2026-05-05 19:13 | 52.91718 | 2.75885 | 25718 ft | 423 kts | 282° |
| 2026-05-05 19:13 | 52.92422 | 2.71135 | 25998 ft | 425 kts | 282° |
| 2026-05-05 19:14 | 52.93127 | 2.66361 | 26270 ft | 427 kts | 282° |
| 2026-05-05 19:14 | 52.93833 | 2.61571 | 26531 ft | 429 kts | 282° |
| 2026-05-05 19:14 | 52.94539 | 2.56760 | 26782 ft | 430 kts | 282° |
| 2026-05-05 19:14 | 52.95248 | 2.51922 | 27023 ft | 432 kts | 282° |
| 2026-05-05 19:15 | 52.95957 | 2.47060 | 27257 ft | 434 kts | 282° |
| 2026-05-05 19:15 | 52.96668 | 2.42174 | 27482 ft | 436 kts | 282° |
| 2026-05-05 19:15 | 52.97377 | 2.37283 | 27707 ft | 437 kts | 282° |
| 2026-05-05 19:15 | 52.98087 | 2.32375 | 28012 ft | 436 kts | 281° |
| 2026-05-05 19:16 | 52.98792 | 2.27486 | 28320 ft | 436 kts | 281° |
| 2026-05-05 19:16 | 52.99495 | 2.22591 | 28603 ft | 435 kts | 281° |
| 2026-05-05 19:16 | 53.00195 | 2.17703 | 28893 ft | 435 kts | 281° |
| 2026-05-05 19:16 | 53.00892 | 2.12820 | 29174 ft | 434 kts | 281° |
| 2026-05-05 19:17 | 53.01586 | 2.07943 | 29451 ft | 434 kts | 281° |
| 2026-05-05 19:17 | 53.02278 | 2.03066 | 29720 ft | 433 kts | 281° |
| 2026-05-05 19:17 | 53.02967 | 1.98191 | 29973 ft | 433 kts | 281° |
| 2026-05-05 19:17 | 53.03653 | 1.93323 | 30227 ft | 433 kts | 281° |
| 2026-05-05 19:18 | 53.04330 | 1.88500 | 30435 ft | 434 kts | 281° |
| 2026-05-05 19:18 | 53.05014 | 1.83618 | 30662 ft | 434 kts | 281° |
| 2026-05-05 19:18 | 53.05698 | 1.78719 | 30839 ft | 436 kts | 281° |
| 2026-05-05 19:18 | 53.06381 | 1.73808 | 31030 ft | 437 kts | 281° |
| 2026-05-05 19:19 | 53.07065 | 1.68879 | 31234 ft | 437 kts | 281° |
| 2026-05-05 19:19 | 53.07746 | 1.63948 | 31433 ft | 438 kts | 281° |
| 2026-05-05 19:19 | 53.08428 | 1.59003 | 31633 ft | 439 kts | 281° |
| 2026-05-05 19:19 | 53.09107 | 1.54057 | 31833 ft | 439 kts | 281° |
| 2026-05-05 19:20 | 53.09787 | 1.49085 | 31956 ft | 441 kts | 281° |
| 2026-05-05 19:20 | 53.10467 | 1.44103 | 31965 ft | 442 kts | 281° |
| 2026-05-05 19:20 | 53.11821 | 1.34122 | 31972 ft | 441 kts | 281° |
| 2026-05-05 19:21 | 53.13156 | 1.24215 | 31976 ft | 440 kts | 281° |
| 2026-05-05 19:21 | 53.14490 | 1.14254 | 31975 ft | 441 kts | 281° |
| 2026-05-05 19:22 | 53.15818 | 1.04267 | 31974 ft | 441 kts | 281° |
| 2026-05-05 19:22 | 53.17136 | 0.94288 | 31975 ft | 441 kts | 281° |
| 2026-05-05 19:23 | 53.18443 | 0.84319 | 31978 ft | 439 kts | 281° |
| 2026-05-05 19:23 | 53.19739 | 0.74368 | 31981 ft | 438 kts | 281° |
| 2026-05-05 19:24 | 53.21024 | 0.64435 | 31985 ft | 437 kts | 281° |
| 2026-05-05 19:24 | 53.22309 | 0.54527 | 31991 ft | 438 kts | 281° |
| 2026-05-05 19:25 | 53.23433 | 0.46260 | 31997 ft | 441 kts | 281° |
| 2026-05-05 19:25 | 53.24916 | 0.34563 | 31998 ft | 440 kts | 281° |
| 2026-05-05 19:26 | 53.26160 | 0.24541 | 31999 ft | 441 kts | 280° |
| 2026-05-05 19:26 | 53.27403 | 0.14493 | 32010 ft | 443 kts | 280° |
| 2026-05-05 19:27 | 53.28021 | 0.09504 | 31901 ft | 446 kts | 280° |
| 2026-05-05 19:27 | 53.28508 | 0.04362 | 31296 ft | 447 kts | 274° |
| 2026-05-05 19:27 | 53.28690 | -0.00809 | 30689 ft | 443 kts | 271° |
| 2026-05-05 19:27 | 53.28740 | -0.05930 | 30092 ft | 438 kts | 269° |
| 2026-05-05 19:28 | 53.28707 | -0.11002 | 29505 ft | 434 kts | 268° |
| 2026-05-05 19:28 | 53.28640 | -0.16027 | 28925 ft | 430 kts | 268° |
| 2026-05-05 19:28 | 53.28573 | -0.21000 | 28350 ft | 426 kts | 268° |
| 2026-05-05 19:28 | 53.28507 | -0.25925 | 27777 ft | 422 kts | 268° |
| 2026-05-05 19:29 | 53.28441 | -0.30798 | 27209 ft | 418 kts | 268° |
| 2026-05-05 19:29 | 53.28375 | -0.35648 | 26645 ft | 414 kts | 268° |
| 2026-05-05 19:29 | 53.28308 | -0.40429 | 26090 ft | 410 kts | 268° |
| 2026-05-05 19:29 | 53.28241 | -0.45166 | 25539 ft | 406 kts | 268° |
| 2026-05-05 19:30 | 53.28173 | -0.49790 | 25001 ft | 402 kts | 267° |
| 2026-05-05 19:30 | 53.28106 | -0.54435 | 24460 ft | 398 kts | 268° |
| 2026-05-05 19:30 | 53.28081 | -0.59038 | 23924 ft | 394 kts | 268° |
| 2026-05-05 19:30 | 53.28058 | -0.63603 | 23389 ft | 390 kts | 268° |
| 2026-05-05 19:31 | 53.28021 | -0.68114 | 22859 ft | 386 kts | 267° |
| 2026-05-05 19:31 | 53.27974 | -0.72574 | 22335 ft | 382 kts | 267° |
| 2026-05-05 19:31 | 53.27922 | -0.76993 | 21816 ft | 379 kts | 268° |
| 2026-05-05 19:31 | 53.27866 | -0.81376 | 21299 ft | 375 kts | 267° |
| 2026-05-05 19:32 | 53.27805 | -0.85718 | 20787 ft | 371 kts | 268° |
| 2026-05-05 19:32 | 53.27592 | -0.89996 | 20280 ft | 367 kts | 258° |
| 2026-05-05 19:32 | 53.26921 | -0.94078 | 19778 ft | 363 kts | 251° |
| 2026-05-05 19:32 | 53.26129 | -0.98015 | 19292 ft | 360 kts | 250° |
| 2026-05-05 19:33 | 53.25311 | -1.01951 | 18819 ft | 357 kts | 250° |
| 2026-05-05 19:33 | 53.24474 | -1.05891 | 18348 ft | 354 kts | 250° |
| 2026-05-05 19:33 | 53.23658 | -1.09691 | 17899 ft | 351 kts | 250° |
| 2026-05-05 19:33 | 53.22835 | -1.13504 | 17435 ft | 348 kts | 250° |
| 2026-05-05 19:34 | 53.22011 | -1.17284 | 16986 ft | 345 kts | 250° |
| 2026-05-05 19:34 | 53.21189 | -1.21026 | 16544 ft | 342 kts | 250° |
| 2026-05-05 19:34 | 53.20364 | -1.24750 | 16088 ft | 340 kts | 250° |
| 2026-05-05 19:35 | 53.18723 | -1.32087 | 15219 ft | 337 kts | 250° |
| 2026-05-05 19:35 | 53.17897 | -1.35746 | 14786 ft | 337 kts | 250° |
| 2026-05-05 19:35 | 53.17067 | -1.39402 | 14353 ft | 337 kts | 250° |
| 2026-05-05 19:35 | 53.16234 | -1.43057 | 13924 ft | 337 kts | 250° |
| 2026-05-05 19:36 | 53.15407 | -1.46694 | 13481 ft | 335 kts | 250° |
| 2026-05-05 19:36 | 53.14598 | -1.50264 | 13057 ft | 333 kts | 250° |
| 2026-05-05 19:36 | 53.13785 | -1.53858 | 12673 ft | 330 kts | 250° |
| 2026-05-05 19:36 | 53.12982 | -1.57414 | 12271 ft | 327 kts | 250° |
| 2026-05-05 19:37 | 53.12168 | -1.60961 | 11869 ft | 328 kts | 250° |
| 2026-05-05 19:37 | 53.11356 | -1.64521 | 11467 ft | 329 kts | 250° |
| 2026-05-05 19:37 | 53.10545 | -1.68063 | 11082 ft | 326 kts | 250° |
| 2026-05-05 19:37 | 53.09744 | -1.71560 | 10706 ft | 322 kts | 250° |
| 2026-05-05 19:38 | 53.08942 | -1.75026 | 10346 ft | 318 kts | 250° |
| 2026-05-05 19:38 | 53.08158 | -1.78423 | 10249 ft | 309 kts | 250° |
| 2026-05-05 19:38 | 53.07398 | -1.81713 | 10200 ft | 300 kts | 250° |
| 2026-05-05 19:38 | 53.06667 | -1.84893 | 10181 ft | 288 kts | 250° |
| 2026-05-05 19:39 | 53.05938 | -1.88018 | 9946 ft | 290 kts | 250° |
| 2026-05-05 19:39 | 53.05215 | -1.91112 | 9607 ft | 290 kts | 250° |
| 2026-05-05 19:39 | 53.04491 | -1.94223 | 9254 ft | 288 kts | 250° |
| 2026-05-05 19:39 | 53.04005 | -1.96305 | 9020 ft | 287 kts | 250° |
| 2026-05-05 19:40 | 53.03042 | -2.00402 | 8553 ft | 286 kts | 250° |
| 2026-05-05 19:40 | 53.02320 | -2.03473 | 8202 ft | 284 kts | 250° |
| 2026-05-05 19:40 | 53.01604 | -2.06519 | 7873 ft | 282 kts | 250° |
| 2026-05-05 19:40 | 53.00888 | -2.09549 | 7546 ft | 280 kts | 250° |
| 2026-05-05 19:41 | 53.00176 | -2.12559 | 7217 ft | 279 kts | 250° |
| 2026-05-05 19:41 | 52.99466 | -2.15542 | 6891 ft | 277 kts | 250° |
| 2026-05-05 19:41 | 52.98829 | -2.18535 | 6561 ft | 274 kts | 259° |
| 2026-05-05 19:41 | 52.98860 | -2.21636 | 6244 ft | 268 kts | 286° |
| 2026-05-05 19:42 | 52.99744 | -2.24274 | 5996 ft | 261 kts | 312° |
| 2026-05-05 19:42 | 53.01107 | -2.26234 | 5752 ft | 257 kts | 322° |
| 2026-05-05 19:42 | 53.02512 | -2.27969 | 5505 ft | 254 kts | 323° |
| 2026-05-05 19:42 | 53.03919 | -2.29707 | 5253 ft | 250 kts | 323° |
| 2026-05-05 19:43 | 53.05310 | -2.31418 | 4999 ft | 247 kts | 323° |
| 2026-05-05 19:43 | 53.06680 | -2.33111 | 4749 ft | 244 kts | 323° |
| 2026-05-05 19:43 | 53.08025 | -2.34777 | 4487 ft | 235 kts | 323° |
| 2026-05-05 19:43 | 53.09299 | -2.36354 | 4226 ft | 222 kts | 323° |
| 2026-05-05 19:44 | 53.10098 | -2.37354 | 4089 ft | 211 kts | 323° |
| 2026-05-05 19:44 | 53.11605 | -2.39236 | 3750 ft | 194 kts | 323° |
| 2026-05-05 19:44 | 53.12657 | -2.40547 | 3488 ft | 183 kts | 323° |
| 2026-05-05 19:44 | 53.13642 | -2.41777 | 3230 ft | 175 kts | 323° |
| 2026-05-05 19:45 | 53.14606 | -2.42997 | 3059 ft | 168 kts | 323° |
| 2026-05-05 19:45 | 53.15564 | -2.44067 | 3020 ft | 171 kts | 329° |
| 2026-05-05 19:45 | 53.16622 | -2.45038 | 3066 ft | 175 kts | 331° |
| 2026-05-05 19:45 | 53.17701 | -2.46024 | 3061 ft | 177 kts | 330° |
| 2026-05-05 19:46 | 53.18793 | -2.47019 | 3072 ft | 181 kts | 331° |
| 2026-05-05 19:46 | 53.19901 | -2.48029 | 3049 ft | 180 kts | 330° |
| 2026-05-05 19:46 | 53.20985 | -2.49004 | 3059 ft | 174 kts | 331° |
| 2026-05-05 19:46 | 53.22021 | -2.49951 | 3018 ft | 164 kts | 331° |
| 2026-05-05 19:47 | 53.23070 | -2.50498 | 2933 ft | 161 kts | 4° |
| 2026-05-05 19:47 | 53.24079 | -2.49695 | 2969 ft | 167 kts | 30° |
| 2026-05-05 19:47 | 53.25000 | -2.48327 | 3067 ft | 182 kts | 39° |
| 2026-05-05 19:47 | 53.25891 | -2.46828 | 2940 ft | 181 kts | 41° |
| 2026-05-05 19:48 | 53.26719 | -2.45287 | 2715 ft | 175 kts | 44° |
| 2026-05-05 19:48 | 53.27475 | -2.43775 | 2484 ft | 163 kts | 44° |
| 2026-05-05 19:48 | 53.28168 | -2.42364 | 2272 ft | 151 kts | 45° |
| 2026-05-05 19:48 | 53.28806 | -2.41056 | 2055 ft | 141 kts | 45° |
| 2026-05-05 19:49 | 53.29425 | -2.39783 | 1892 ft | 143 kts | 45° |
| 2026-05-05 19:49 | 53.29842 | -2.38924 | 1819 ft | 143 kts | 46° |
| 2026-05-05 19:49 | 53.30680 | -2.37208 | 1514 ft | 142 kts | 46° |
| 2026-05-05 19:49 | 53.31312 | -2.35938 | 1334 ft | 142 kts | 47° |
| 2026-05-05 19:50 | 53.31899 | -2.34640 | 1226 ft | 141 kts | 50° |
| 2026-05-05 19:50 | 53.32530 | -2.33432 | 1033 ft | 138 kts | 48° |
| 2026-05-05 19:50 | 53.33153 | -2.32185 | 779 ft | 140 kts | 51° |
| 2026-05-05 19:50 | 53.33741 | -2.30905 | 582 ft | 136 kts | 52° |
| 2026-05-05 19:51 | 53.34320 | -2.29683 | 388 ft | 133 kts | 51° |
| 2026-05-05 19:51 | 53.34885 | -2.28527 | 277 ft | 122 kts | 51° |
| 2026-05-05 19:51 | 53.35368 | -2.27503 | 266 ft | 98 kts | 50° |
| 2026-05-05 19:51 | 53.35707 | -2.26804 | 265 ft | 56 kts | 50° |
| 2026-05-05 19:52 | 53.35909 | -2.26389 | 265 ft | 43 kts | 52° |
| 2026-05-05 19:52 | 53.36029 | -2.26149 | 265 ft | 14 kts | 30° |
| 2026-05-05 19:52 | 53.36086 | -2.26186 | 265 ft | 8 kts | 321° |
| 2026-05-05 19:52 | 53.36128 | -2.26242 | 265 ft | 7 kts | 321° |
| 2026-05-05 19:53 | 53.36137 | -2.26319 | 265 ft | 7 kts | 240° |
| 2026-05-05 19:53 | 53.36108 | -2.26384 | 265 ft | 7 kts | 232° |
| 2026-05-05 19:53 | 53.36078 | -2.26445 | 265 ft | 7 kts | 230° |
| 2026-05-05 19:53 | 53.36049 | -2.26504 | 265 ft | 6 kts | 232° |
| 2026-05-05 19:54 | 53.36022 | -2.26563 | 265 ft | 6 kts | 232° |
| 2026-05-05 19:54 | 53.35994 | -2.26620 | 265 ft | 7 kts | 230° |
| 2026-05-05 19:54 | 53.35963 | -2.26682 | 265 ft | 7 kts | 230° |